sensor_id;sensor_type;location;lat;lon;timestamp;pressure;altitude;pressure_sealevel;temperature;humidity
47104;BME280;32853;52.164;5.400;2023-11-18T00:01:46;101941.47;;;6.22;100.00
47104;BME280;32853;52.164;5.400;2023-11-18T00:04:14;102104.88;;;7.02;100.00
47104;BME280;32853;52.164;5.400;2023-11-18T00:06:48;102166.22;;;7.44;100.00
47104;BME280;32853;52.164;5.400;2023-11-18T00:09:17;101993.28;;;6.56;100.00
47104;BME280;32853;52.164;5.400;2023-11-18T00:11:43;102115.25;;;7.05;100.00
47104;BME280;32853;52.164;5.400;2023-11-18T00:14:09;102026.22;;;6.57;100.00
47104;BME280;32853;52.164;5.400;2023-11-18T00:16:43;101922.47;;;6.06;100.00
47104;BME280;32853;52.164;5.400;2023-11-18T00:19:14;102092.69;;;7.05;100.00
47104;BME280;32853;52.164;5.400;2023-11-18T00:21:53;102082.31;;;7.05;100.00
47104;BME280;32853;52.164;5.400;2023-11-18T00:24:20;101970.00;;;6.28;100.00
47104;BME280;32853;52.164;5.400;2023-11-18T00:27:00;101970.03;;;6.19;100.00
47104;BME280;32853;52.164;5.400;2023-11-18T00:29:38;102148.91;;;7.38;100.00
47104;BME280;32853;52.164;5.400;2023-11-18T00:32:20;102252.63;;;8.07;100.00
47104;BME280;32853;52.164;5.400;2023-11-18T00:34:46;101896.59;;;5.91;100.00
47104;BME280;32853;52.164;5.400;2023-11-18T00:37:14;102274.31;;;8.09;100.00
47104;BME280;32853;52.164;5.400;2023-11-18T00:39:47;101912.94;;;6.07;100.00
47104;BME280;32853;52.164;5.400;2023-11-18T00:42:12;101947.53;;;6.17;100.00
47104;BME280;32853;52.164;5.400;2023-11-18T00:44:37;102089.28;;;6.94;100.00
47104;BME280;32853;52.164;5.400;2023-11-18T00:47:27;101956.22;;;6.13;100.00
47104;BME280;32853;52.164;5.400;2023-11-18T00:49:53;101955.34;;;6.17;100.00
47104;BME280;32853;52.164;5.400;2023-11-18T00:52:20;102304.72;;;8.13;100.00
47104;BME280;32853;52.164;5.400;2023-11-18T00:54:49;101965.66;;;6.38;100.00
47104;BME280;32853;52.164;5.400;2023-11-18T00:57:16;101925.06;;;6.06;100.00
47104;BME280;32853;52.164;5.400;2023-11-18T00:59:42;102051.19;;;6.90;100.00
47104;BME280;32853;52.164;5.400;2023-11-18T01:02:14;101916.38;;;6.18;100.00
47104;BME280;32853;52.164;5.400;2023-11-18T01:04:47;102004.63;;;6.38;100.00
47104;BME280;32853;52.164;5.400;2023-11-18T01:07:15;101996.81;;;6.46;100.00
47104;BME280;32853;52.164;5.400;2023-11-18T01:09:41;101960.50;;;6.27;100.00
47104;BME280;32853;52.164;5.400;2023-11-18T01:12:07;101983.84;;;6.38;100.00
47104;BME280;32853;52.164;5.400;2023-11-18T01:14:39;101936.28;;;6.16;100.00
47104;BME280;32853;52.164;5.400;2023-11-18T01:17:15;102086.69;;;6.98;100.00
47104;BME280;32853;52.164;5.400;2023-11-18T01:19:49;102200.03;;;7.50;100.00
47104;BME280;32853;52.164;5.400;2023-11-18T01:22:21;102193.84;;;7.68;100.00
47104;BME280;32853;52.164;5.400;2023-11-18T01:24:50;102299.47;;;8.18;100.00
47104;BME280;32853;52.164;5.400;2023-11-18T01:27:19;101978.69;;;6.26;100.00
47104;BME280;32853;52.164;5.400;2023-11-18T01:29:49;102180.94;;;7.54;100.00
47104;BME280;32853;52.164;5.400;2023-11-18T01:32:19;102124.75;;;7.12;100.00
47104;BME280;32853;52.164;5.400;2023-11-18T01:34:45;102214.66;;;7.72;100.00
47104;BME280;32853;52.164;5.400;2023-11-18T01:37:27;102163.56;;;7.50;100.00
47104;BME280;32853;52.164;5.400;2023-11-18T01:40:11;102295.91;;;8.32;100.00
47104;BME280;32853;52.164;5.400;2023-11-18T01:42:44;102284.59;;;8.30;100.00
47104;BME280;32853;52.164;5.400;2023-11-18T01:45:11;102282.00;;;8.32;100.00
47104;BME280;32853;52.164;5.400;2023-11-18T01:47:38;101945.00;;;6.04;100.00
47104;BME280;32853;52.164;5.400;2023-11-18T01:50:06;101977.81;;;6.28;100.00
47104;BME280;32853;52.164;5.400;2023-11-18T01:52:35;101992.47;;;6.41;100.00
47104;BME280;32853;52.164;5.400;2023-11-18T01:55:06;101955.28;;;6.33;100.00
47104;BME280;32853;52.164;5.400;2023-11-18T01:57:34;102022.69;;;6.64;100.00
47104;BME280;32853;52.164;5.400;2023-11-18T02:00:07;102106.47;;;7.25;100.00
47104;BME280;32853;52.164;5.400;2023-11-18T02:02:36;102103.91;;;7.22;100.00
47104;BME280;32853;52.164;5.400;2023-11-18T02:05:03;102188.59;;;7.74;100.00
47104;BME280;32853;52.164;5.400;2023-11-18T02:07:31;102117.75;;;7.24;100.00
47104;BME280;32853;52.164;5.400;2023-11-18T02:09:59;102154.88;;;7.52;100.00
47104;BME280;32853;52.164;5.400;2023-11-18T02:15:10;102031.31;;;6.74;100.00
47104;BME280;32853;52.164;5.400;2023-11-18T02:17:38;102222.41;;;7.80;100.00
47104;BME280;32853;52.164;5.400;2023-11-18T02:20:08;102166.22;;;7.47;100.00
47104;BME280;32853;52.164;5.400;2023-11-18T02:22:42;102162.72;;;7.49;100.00
47104;BME280;32853;52.164;5.400;2023-11-18T02:25:09;102149.00;;;7.21;100.00
47104;BME280;32853;52.164;5.400;2023-11-18T02:27:37;101961.34;;;6.29;100.00
47104;BME280;32853;52.164;5.400;2023-11-18T02:30:05;102271.63;;;8.23;100.00
47104;BME280;32853;52.164;5.400;2023-11-18T02:32:37;101906.03;;;6.07;100.00
47104;BME280;32853;52.164;5.400;2023-11-18T02:35:16;102009.69;;;6.68;100.00
47104;BME280;32853;52.164;5.400;2023-11-18T02:37:44;101951.91;;;6.10;100.00
47104;BME280;32853;52.164;5.400;2023-11-18T02:40:16;102271.66;;;8.21;100.00
47104;BME280;32853;52.164;5.400;2023-11-18T02:42:45;102034.75;;;6.80;100.00
47104;BME280;32853;52.164;5.400;2023-11-18T02:45:13;102086.63;;;7.05;100.00
47104;BME280;32853;52.164;5.400;2023-11-18T02:47:44;102164.38;;;7.60;100.00
47104;BME280;32853;52.164;5.400;2023-11-18T02:50:09;102228.38;;;7.97;100.00
47104;BME280;32853;52.164;5.400;2023-11-18T02:52:42;101967.34;;;6.42;100.00
47104;BME280;32853;52.164;5.400;2023-11-18T02:55:08;101948.41;;;6.23;100.00
47104;BME280;32853;52.164;5.400;2023-11-18T02:57:37;102176.41;;;7.76;100.00
47104;BME280;32853;52.164;5.400;2023-11-18T03:00:05;102079.63;;;7.17;100.00
47104;BME280;32853;52.164;5.400;2023-11-18T03:02:33;102153.09;;;7.65;100.00
47104;BME280;32853;52.164;5.400;2023-11-18T03:04:59;101929.31;;;6.33;100.00
47104;BME280;32853;52.164;5.400;2023-11-18T03:07:25;102007.06;;;6.70;100.00
47104;BME280;32853;52.164;5.400;2023-11-18T03:09:52;102064.09;;;7.04;100.00
47104;BME280;32853;52.164;5.400;2023-11-18T03:12:18;102146.19;;;7.56;100.00
47104;BME280;32853;52.164;5.400;2023-11-18T03:14:43;102062.38;;;7.04;100.00
47104;BME280;32853;52.164;5.400;2023-11-18T03:17:12;101965.63;;;6.41;100.00
47104;BME280;32853;52.164;5.400;2023-11-18T03:19:38;102118.53;;;7.43;100.00
47104;BME280;32853;52.164;5.400;2023-11-18T03:22:07;101921.56;;;6.18;100.00
47104;BME280;32853;52.164;5.400;2023-11-18T03:24:36;101945.72;;;6.37;100.00
47104;BME280;32853;52.164;5.400;2023-11-18T03:27:02;101876.66;;;6.01;100.00
47104;BME280;32853;52.164;5.400;2023-11-18T03:29:29;102044.03;;;7.25;100.00
47104;BME280;32853;52.164;5.400;2023-11-18T03:31:57;102087.31;;;7.36;100.00
47104;BME280;32853;52.164;5.400;2023-11-18T03:34:23;101916.25;;;6.41;100.00
47104;BME280;32853;52.164;5.400;2023-11-18T03:36:52;101938.72;;;6.50;100.00
47104;BME280;32853;52.164;5.400;2023-11-18T03:39:22;101930.97;;;6.40;100.00
47104;BME280;32853;52.164;5.400;2023-11-18T03:41:48;102206.53;;;8.16;100.00
47104;BME280;32853;52.164;5.400;2023-11-18T03:44:15;101918.00;;;6.37;100.00
47104;BME280;32853;52.164;5.400;2023-11-18T03:46:42;102198.59;;;8.32;100.00
47104;BME280;32853;52.164;5.400;2023-11-18T03:49:08;102006.78;;;7.17;100.00
47104;BME280;32853;52.164;5.400;2023-11-18T03:51:33;102215.09;;;8.32;100.00
47104;BME280;32853;52.164;5.400;2023-11-18T03:53:59;101954.97;;;6.85;100.00
47104;BME280;32853;52.164;5.400;2023-11-18T03:56:24;101902.38;;;6.48;100.00
47104;BME280;32853;52.164;5.400;2023-11-18T03:58:54;101990.28;;;7.18;100.00
47104;BME280;32853;52.164;5.400;2023-11-18T04:01:30;101846.19;;;6.32;100.00
47104;BME280;32853;52.164;5.400;2023-11-18T04:04:02;102056.72;;;7.67;100.00
47104;BME280;32853;52.164;5.400;2023-11-18T04:06:32;101844.34;;;6.46;100.00
47104;BME280;32853;52.164;5.400;2023-11-18T04:08:58;101847.78;;;6.48;100.00
47104;BME280;32853;52.164;5.400;2023-11-18T04:11:36;101901.22;;;6.89;100.00
47104;BME280;32853;52.164;5.400;2023-11-18T04:14:01;102166.31;;;8.48;100.00
47104;BME280;32853;52.164;5.400;2023-11-18T04:16:31;102155.00;;;8.49;100.00
47104;BME280;32853;52.164;5.400;2023-11-18T04:19:10;101856.31;;;6.70;100.00
47104;BME280;32853;52.164;5.400;2023-11-18T04:21:37;101995.25;;;7.49;100.00
47104;BME280;32853;52.164;5.400;2023-11-18T04:24:03;102097.97;;;8.14;100.00
47104;BME280;32853;52.164;5.400;2023-11-18T04:26:30;102108.44;;;8.08;100.00
47104;BME280;32853;52.164;5.400;2023-11-18T04:28:56;102052.13;;;7.95;100.00
47104;BME280;32853;52.164;5.400;2023-11-18T04:31:23;101932.22;;;7.15;100.00
47104;BME280;32853;52.164;5.400;2023-11-18T04:33:48;102136.72;;;8.54;100.00
47104;BME280;32853;52.164;5.400;2023-11-18T04:36:19;102161.03;;;8.56;100.00
47104;BME280;32853;52.164;5.400;2023-11-18T04:38:50;101823.34;;;6.72;100.00
47104;BME280;32853;52.164;5.400;2023-11-18T04:41:15;101807.13;;;6.44;100.00
47104;BME280;32853;52.164;5.400;2023-11-18T04:43:41;101833.84;;;6.61;100.00
47104;BME280;32853;52.164;5.400;2023-11-18T04:46:07;102038.38;;;7.80;100.00
47104;BME280;32853;52.164;5.400;2023-11-18T04:48:32;102046.09;;;7.91;100.00
47104;BME280;32853;52.164;5.400;2023-11-18T04:50:59;101969.03;;;7.70;100.00
47104;BME280;32853;52.164;5.400;2023-11-18T04:53:26;101918.13;;;7.39;100.00
47104;BME280;32853;52.164;5.400;2023-11-18T04:56:01;102140.16;;;8.56;100.00
47104;BME280;32853;52.164;5.400;2023-11-18T04:58:29;101949.28;;;7.48;100.00
47104;BME280;32853;52.164;5.400;2023-11-18T05:00:56;102001.84;;;7.90;100.00
47104;BME280;32853;52.164;5.400;2023-11-18T05:03:26;102014.88;;;7.85;100.00
47104;BME280;32853;52.164;5.400;2023-11-18T05:05:52;102117.56;;;8.53;100.00
47104;BME280;32853;52.164;5.400;2023-11-18T05:08:20;101890.75;;;6.99;100.00
47104;BME280;32853;52.164;5.400;2023-11-18T05:10:50;102123.66;;;8.52;100.00
47104;BME280;32853;52.164;5.400;2023-11-18T05:13:18;102094.25;;;8.42;100.00
47104;BME280;32853;52.164;5.400;2023-11-18T05:15:46;101914.75;;;7.32;100.00
47104;BME280;32853;52.164;5.400;2023-11-18T05:18:15;101957.72;;;7.73;100.00
47104;BME280;32853;52.164;5.400;2023-11-18T05:20:47;102100.13;;;8.60;100.00
47104;BME280;32853;52.164;5.400;2023-11-18T05:23:17;101954.19;;;7.80;100.00
47104;BME280;32853;52.164;5.400;2023-11-18T05:25:43;101716.38;;;6.18;100.00
47104;BME280;32853;52.164;5.400;2023-11-18T05:28:08;102086.28;;;8.55;100.00
47104;BME280;32853;52.164;5.400;2023-11-18T05:30:35;101748.03;;;6.66;100.00
47104;BME280;32853;52.164;5.400;2023-11-18T05:33:05;101793.75;;;6.85;100.00
47104;BME280;32853;52.164;5.400;2023-11-18T05:35:31;102088.84;;;8.59;100.00
47104;BME280;32853;52.164;5.400;2023-11-18T05:37:58;101844.69;;;7.09;100.00
47104;BME280;32853;52.164;5.400;2023-11-18T05:40:28;101995.66;;;7.97;100.00
47104;BME280;32853;52.164;5.400;2023-11-18T05:42:55;101967.88;;;7.96;100.00
47104;BME280;32853;52.164;5.400;2023-11-18T05:45:20;102107.06;;;8.61;100.00
47104;BME280;32853;52.164;5.400;2023-11-18T05:47:57;101773.88;;;6.81;100.00
47104;BME280;32853;52.164;5.400;2023-11-18T05:50:31;101994.66;;;8.11;100.00
47104;BME280;32853;52.164;5.400;2023-11-18T05:52:58;102087.09;;;8.58;100.00
47104;BME280;32853;52.164;5.400;2023-11-18T05:55:30;102092.25;;;8.64;100.00
47104;BME280;32853;52.164;5.400;2023-11-18T05:57:57;101984.16;;;8.16;100.00
47104;BME280;32853;52.164;5.400;2023-11-18T06:00:26;101848.69;;;7.45;100.00
47104;BME280;32853;52.164;5.400;2023-11-18T06:02:55;102055.72;;;8.64;100.00
47104;BME280;32853;52.164;5.400;2023-11-18T06:05:21;102010.00;;;8.37;100.00
47104;BME280;32853;52.164;5.400;2023-11-18T06:07:58;102048.09;;;8.51;100.00
47104;BME280;32853;52.164;5.400;2023-11-18T06:10:28;102000.72;;;8.12;100.00
47104;BME280;32853;52.164;5.400;2023-11-18T06:13:10;102041.09;;;8.56;100.00
47104;BME280;32853;52.164;5.400;2023-11-18T06:15:42;101859.22;;;7.33;100.00
47104;BME280;32853;52.164;5.400;2023-11-18T06:18:08;102017.75;;;8.42;100.00
47104;BME280;32853;52.164;5.400;2023-11-18T06:20:34;101854.66;;;7.52;100.00
47104;BME280;32853;52.164;5.400;2023-11-18T06:23:00;101874.72;;;7.41;100.00
47104;BME280;32853;52.164;5.400;2023-11-18T06:25:37;101990.13;;;8.27;100.00
47104;BME280;32853;52.164;5.400;2023-11-18T06:28:03;102081.13;;;8.49;100.00
47104;BME280;32853;52.164;5.400;2023-11-18T06:30:29;101981.41;;;8.28;100.00
47104;BME280;32853;52.164;5.400;2023-11-18T06:32:59;101955.47;;;8.19;100.00
47104;BME280;32853;52.164;5.400;2023-11-18T06:35:26;101849.34;;;7.61;100.00
47104;BME280;32853;52.164;5.400;2023-11-18T06:38:08;101758.88;;;7.06;100.00
47104;BME280;32853;52.164;5.400;2023-11-18T06:40:38;102034.19;;;8.50;100.00
47104;BME280;32853;52.164;5.400;2023-11-18T06:43:03;102032.22;;;8.69;100.00
47104;BME280;32853;52.164;5.400;2023-11-18T06:45:42;102041.75;;;8.71;100.00
47104;BME280;32853;52.164;5.400;2023-11-18T06:48:20;102010.72;;;8.50;100.00
47104;BME280;32853;52.164;5.400;2023-11-18T06:50:47;101716.63;;;6.89;100.00
47104;BME280;32853;52.164;5.400;2023-11-18T06:53:12;101844.13;;;7.66;100.00
47104;BME280;32853;52.164;5.400;2023-11-18T06:55:38;101930.47;;;8.04;100.00
47104;BME280;32853;52.164;5.400;2023-11-18T06:58:03;101801.09;;;7.31;100.00
47104;BME280;32853;52.164;5.400;2023-11-18T07:00:29;102047.78;;;8.73;100.00
47104;BME280;32853;52.164;5.400;2023-11-18T07:02:55;102059.84;;;8.82;100.00
47104;BME280;32853;52.164;5.400;2023-11-18T07:05:20;101899.34;;;7.92;100.00
47104;BME280;32853;52.164;5.400;2023-11-18T07:07:51;102066.91;;;8.74;100.00
47104;BME280;32853;52.164;5.400;2023-11-18T07:10:16;101844.28;;;7.50;100.00
47104;BME280;32853;52.164;5.400;2023-11-18T07:12:46;102039.19;;;8.68;100.00
47104;BME280;32853;52.164;5.400;2023-11-18T07:15:25;102039.09;;;8.76;100.00
47104;BME280;32853;52.164;5.400;2023-11-18T07:17:50;101781.44;;;7.06;100.00
47104;BME280;32853;52.164;5.400;2023-11-18T07:20:16;102044.22;;;8.82;100.00
47104;BME280;32853;52.164;5.400;2023-11-18T07:22:43;102044.28;;;8.78;100.00
47104;BME280;32853;52.164;5.400;2023-11-18T07:25:08;102014.16;;;8.52;100.00
47104;BME280;32853;52.164;5.400;2023-11-18T07:27:35;101949.31;;;8.25;100.00
47104;BME280;32853;52.164;5.400;2023-11-18T07:30:01;101985.63;;;8.41;100.00
47104;BME280;32853;52.164;5.400;2023-11-18T07:32:26;102052.94;;;8.80;100.00
47104;BME280;32853;52.164;5.400;2023-11-18T07:34:52;101732.34;;;6.77;100.00
47104;BME280;32853;52.164;5.400;2023-11-18T07:37:17;101758.22;;;6.89;100.00
47104;BME280;32853;52.164;5.400;2023-11-18T07:39:44;102074.06;;;8.60;100.00
47104;BME280;32853;52.164;5.400;2023-11-18T07:42:12;101801.34;;;7.11;100.00
47104;BME280;32853;52.164;5.400;2023-11-18T07:44:46;102061.63;;;8.80;100.00
47104;BME280;32853;52.164;5.400;2023-11-18T07:47:23;101976.19;;;8.30;100.00
47104;BME280;32853;52.164;5.400;2023-11-18T07:49:48;101885.03;;;7.54;100.00
47104;BME280;32853;52.164;5.400;2023-11-18T07:52:14;101850.31;;;7.54;100.00
47104;BME280;32853;52.164;5.400;2023-11-18T07:54:40;101926.06;;;8.09;100.00
47104;BME280;32853;52.164;5.400;2023-11-18T07:57:05;101682.28;;;6.53;100.00
47104;BME280;32853;52.164;5.400;2023-11-18T07:59:48;102028.69;;;8.73;100.00
47104;BME280;32853;52.164;5.400;2023-11-18T08:02:14;101833.06;;;7.45;100.00
47104;BME280;32853;52.164;5.400;2023-11-18T08:04:40;102042.66;;;8.69;100.00
47104;BME280;32853;52.164;5.400;2023-11-18T08:07:07;102045.22;;;8.72;100.00
47104;BME280;32853;52.164;5.400;2023-11-18T08:09:47;101949.91;;;8.50;100.00
47104;BME280;32853;52.164;5.400;2023-11-18T08:12:16;102026.84;;;8.81;100.00
47104;BME280;32853;52.164;5.400;2023-11-18T08:14:42;101690.75;;;6.77;100.00
47104;BME280;32853;52.164;5.400;2023-11-18T08:17:07;102012.03;;;8.82;100.00
47104;BME280;32853;52.164;5.400;2023-11-18T08:19:33;102019.09;;;8.77;100.00
47104;BME280;32853;52.164;5.400;2023-11-18T08:22:13;101991.13;;;8.85;100.00
47104;BME280;32853;52.164;5.400;2023-11-18T08:24:41;101680.28;;;6.81;100.00
47104;BME280;32853;52.164;5.400;2023-11-18T08:27:21;101690.63;;;6.86;100.00
47104;BME280;32853;52.164;5.400;2023-11-18T08:29:46;101660.31;;;6.83;100.00
47104;BME280;32853;52.164;5.400;2023-11-18T08:32:13;101989.53;;;8.76;100.00
47104;BME280;32853;52.164;5.400;2023-11-18T08:34:41;101983.28;;;8.85;100.00
47104;BME280;32853;52.164;5.400;2023-11-18T08:37:11;101978.94;;;8.85;100.00
47104;BME280;32853;52.164;5.400;2023-11-18T08:39:37;101671.38;;;7.02;100.00
47104;BME280;32853;52.164;5.400;2023-11-18T08:42:02;101952.84;;;8.88;100.00
47104;BME280;32853;52.164;5.400;2023-11-18T08:44:29;101728.34;;;7.23;100.00
47104;BME280;32853;52.164;5.400;2023-11-18T08:46:57;101646.28;;;6.96;100.00
47104;BME280;32853;52.164;5.400;2023-11-18T08:49:27;101787.53;;;7.78;100.00
47104;BME280;32853;52.164;5.400;2023-11-18T08:52:00;101995.31;;;8.98;100.00
47104;BME280;32853;52.164;5.400;2023-11-18T08:54:26;101965.56;;;9.07;100.00
47104;BME280;32853;52.164;5.400;2023-11-18T08:57:07;101855.28;;;8.41;100.00
47104;BME280;32853;52.164;5.400;2023-11-18T08:59:49;101871.53;;;8.60;100.00
47104;BME280;32853;52.164;5.400;2023-11-18T09:02:19;101608.22;;;6.92;100.00
47104;BME280;32853;52.164;5.400;2023-11-18T09:04:51;101817.03;;;8.42;100.00
47104;BME280;32853;52.164;5.400;2023-11-18T09:07:17;101977.72;;;9.11;100.00
47104;BME280;32853;52.164;5.400;2023-11-18T09:09:44;101748.19;;;7.97;100.00
47104;BME280;32853;52.164;5.400;2023-11-18T09:12:12;101940.50;;;8.98;100.00
47104;BME280;32853;52.164;5.400;2023-11-18T09:14:40;101655.19;;;7.48;100.00
47104;BME280;32853;52.164;5.400;2023-11-18T09:17:11;101803.88;;;8.51;100.00
47104;BME280;32853;52.164;5.400;2023-11-18T09:19:38;101744.88;;;7.89;100.00
47104;BME280;32853;52.164;5.400;2023-11-18T09:22:13;101778.09;;;8.34;100.00
47104;BME280;32853;52.164;5.400;2023-11-18T09:24:42;101660.13;;;7.66;100.00
47104;BME280;32853;52.164;5.400;2023-11-18T09:27:07;101907.09;;;9.18;100.00
47104;BME280;32853;52.164;5.400;2023-11-18T09:29:42;101845.66;;;9.00;100.00
47104;BME280;32853;52.164;5.400;2023-11-18T09:32:09;101842.25;;;8.95;100.00
47104;BME280;32853;52.164;5.400;2023-11-18T09:34:40;101899.97;;;9.28;100.00
47104;BME280;32853;52.164;5.400;2023-11-18T09:37:05;101800.66;;;8.86;100.00
47104;BME280;32853;52.164;5.400;2023-11-18T09:39:37;101871.06;;;9.39;100.00
47104;BME280;32853;52.164;5.400;2023-11-18T09:42:05;101876.47;;;9.28;100.00
47104;BME280;32853;52.164;5.400;2023-11-18T09:44:41;101852.22;;;9.23;100.00
47104;BME280;32853;52.164;5.400;2023-11-18T09:47:08;101713.13;;;8.19;100.00
47104;BME280;32853;52.164;5.400;2023-11-18T09:49:41;101613.06;;;7.78;100.00
47104;BME280;32853;52.164;5.400;2023-11-18T09:52:15;101743.69;;;8.65;100.00
47104;BME280;32853;52.164;5.400;2023-11-18T09:58:06;101572.53;;;7.62;100.00
47104;BME280;32853;52.164;5.400;2023-11-18T10:00:39;101869.28;;;9.41;100.00
47104;BME280;32853;52.164;5.400;2023-11-18T10:03:09;101693.63;;;8.44;100.00
47104;BME280;32853;52.164;5.400;2023-11-18T10:05:40;101651.44;;;8.20;100.00
47104;BME280;32853;52.164;5.400;2023-11-18T10:08:05;101606.91;;;7.84;100.00
47104;BME280;32853;52.164;5.400;2023-11-18T10:10:31;101754.16;;;8.62;100.00
47104;BME280;32853;52.164;5.400;2023-11-18T10:13:11;101681.69;;;8.30;100.00
47104;BME280;32853;52.164;5.400;2023-11-18T10:15:49;101728.91;;;8.64;100.00
47104;BME280;32853;52.164;5.400;2023-11-18T10:18:18;101767.44;;;8.97;100.00
47104;BME280;32853;52.164;5.400;2023-11-18T10:20:52;101677.31;;;8.32;100.00
47104;BME280;32853;52.164;5.400;2023-11-18T10:23:23;101776.13;;;8.99;100.00
47104;BME280;32853;52.164;5.400;2023-11-18T10:25:56;101841.47;;;9.40;100.00
47104;BME280;32853;52.164;5.400;2023-11-18T10:28:53;101832.66;;;9.45;100.00
47104;BME280;32853;52.164;5.400;2023-11-18T10:31:22;101858.78;;;9.45;100.00
47104;BME280;32853;52.164;5.400;2023-11-18T10:33:57;101848.19;;;9.51;100.00
47104;BME280;32853;52.164;5.400;2023-11-18T10:36:23;101811.16;;;9.32;100.00
47104;BME280;32853;52.164;5.400;2023-11-18T10:38:53;101829.44;;;9.31;100.00
47104;BME280;32853;52.164;5.400;2023-11-18T10:41:22;101490.50;;;7.38;100.00
47104;BME280;32853;52.164;5.400;2023-11-18T10:44:12;101621.69;;;8.31;100.00
47104;BME280;32853;52.164;5.400;2023-11-18T10:46:53;101713.06;;;8.74;100.00
47104;BME280;32853;52.164;5.400;2023-11-18T10:49:22;101713.75;;;8.84;100.00
47104;BME280;32853;52.164;5.400;2023-11-18T10:51:47;101718.06;;;8.88;100.00
47104;BME280;32853;52.164;5.400;2023-11-18T10:54:13;101724.59;;;9.11;100.00
47104;BME280;32853;52.164;5.400;2023-11-18T10:56:52;101658.31;;;8.76;100.00
47104;BME280;32853;52.164;5.400;2023-11-18T10:59:29;101593.03;;;8.34;100.00
47104;BME280;32853;52.164;5.400;2023-11-18T11:01:56;101606.63;;;8.50;100.00
47104;BME280;32853;52.164;5.400;2023-11-18T11:04:23;101741.47;;;9.36;100.00
47104;BME280;32853;52.164;5.400;2023-11-18T11:06:49;101651.06;;;8.90;100.00
47104;BME280;32853;52.164;5.400;2023-11-18T11:09:28;101764.59;;;9.54;100.00
47104;BME280;32853;52.164;5.400;2023-11-18T11:11:55;101761.34;;;9.42;100.00
47104;BME280;32853;52.164;5.400;2023-11-18T11:14:23;101594.63;;;8.41;100.00
47104;BME280;32853;52.164;5.400;2023-11-18T11:17:01;101493.94;;;7.91;100.00
47104;BME280;32853;52.164;5.400;2023-11-18T11:19:50;101506.81;;;7.99;100.00
47104;BME280;32853;52.164;5.400;2023-11-18T11:22:23;101528.63;;;8.39;100.00
47104;BME280;32853;52.164;5.400;2023-11-18T11:28:03;101626.94;;;9.19;100.00
47104;BME280;32853;52.164;5.400;2023-11-18T11:30:50;101354.22;;;7.89;100.00
47104;BME280;32853;52.164;5.400;2023-11-18T11:33:39;101630.69;;;9.48;100.00
47104;BME280;32853;52.164;5.400;2023-11-18T11:36:18;101430.63;;;8.29;100.00
47104;BME280;32853;52.164;5.400;2023-11-18T11:39:03;101638.72;;;9.39;100.00
47104;BME280;32853;52.164;5.400;2023-11-18T11:41:32;101485.28;;;8.76;100.00
47104;BME280;32853;52.164;5.400;2023-11-18T11:43:59;101633.09;;;9.57;100.00
47104;BME280;32853;52.164;5.400;2023-11-18T11:46:26;101545.81;;;8.91;100.00
47104;BME280;32853;52.164;5.400;2023-11-18T11:48:59;101615.56;;;9.62;100.00
47104;BME280;32853;52.164;5.400;2023-11-18T11:52:02;101606.13;;;9.56;100.00
47104;BME280;32853;52.164;5.400;2023-11-18T11:54:35;101595.69;;;9.56;100.00
47104;BME280;32853;52.164;5.400;2023-11-18T11:57:15;101567.78;;;9.58;100.00
47104;BME280;32853;52.164;5.400;2023-11-18T12:02:11;101427.66;;;8.86;100.00
47104;BME280;32853;52.164;5.400;2023-11-18T12:04:43;101577.28;;;9.61;100.00
47104;BME280;32853;52.164;5.400;2023-11-18T12:07:09;101586.50;;;9.76;100.00
47104;BME280;32853;52.164;5.400;2023-11-18T12:09:38;101394.22;;;8.68;100.00
47104;BME280;32853;52.164;5.400;2023-11-18T12:12:30;101290.03;;;8.25;100.00
47104;BME280;32853;52.164;5.400;2023-11-18T12:15:00;101401.22;;;9.01;100.00
47104;BME280;32853;52.164;5.400;2023-11-18T12:20:41;101531.22;;;9.93;100.00
47104;BME280;32853;52.164;5.400;2023-11-18T12:23:13;101556.53;;;9.90;100.00
47104;BME280;32853;52.164;5.400;2023-11-18T12:25:46;101352.75;;;8.93;100.00
47104;BME280;32853;52.164;5.400;2023-11-18T12:28:17;101254.78;;;8.47;100.00
47104;BME280;32853;52.164;5.400;2023-11-18T12:30:47;101501.38;;;10.01;100.00
47104;BME280;32853;52.164;5.400;2023-11-18T12:33:24;101295.81;;;8.76;100.00
47104;BME280;32853;52.164;5.400;2023-11-18T12:41:41;101264.75;;;8.99;100.00
47104;BME280;32853;52.164;5.400;2023-11-18T12:44:30;101421.81;;;9.80;100.00
47104;BME280;32853;52.164;5.400;2023-11-18T12:47:20;101153.50;;;8.32;100.00
47104;BME280;32853;52.164;5.400;2023-11-18T12:49:47;101316.72;;;9.07;100.00
47104;BME280;32853;52.164;5.400;2023-11-18T12:52:22;101355.16;;;9.35;100.00
47104;BME280;32853;52.164;5.400;2023-11-18T12:54:48;101334.22;;;9.36;100.00
47104;BME280;32853;52.164;5.400;2023-11-18T12:57:20;101140.88;;;8.51;100.00
47104;BME280;32853;52.164;5.400;2023-11-18T12:59:51;101363.66;;;9.74;100.00
47104;BME280;32853;52.164;5.400;2023-11-18T13:02:19;101310.56;;;9.73;100.00
47104;BME280;32853;52.164;5.400;2023-11-18T13:04:57;101088.56;;;8.24;100.00
47104;BME280;32853;52.164;5.400;2023-11-18T13:07:24;101319.88;;;9.82;100.00
47104;BME280;32853;52.164;5.400;2023-11-18T13:09:50;101272.34;;;9.40;100.00
47104;BME280;32853;52.164;5.400;2023-11-18T13:12:15;101215.16;;;9.01;100.00
47104;BME280;32853;52.164;5.400;2023-11-18T13:14:42;101127.88;;;8.82;100.00
47104;BME280;32853;52.164;5.400;2023-11-18T13:17:11;101100.06;;;8.50;100.00
47104;BME280;32853;52.164;5.400;2023-11-18T13:19:40;101378.97;;;9.86;100.00
47104;BME280;32853;52.164;5.400;2023-11-18T13:22:08;101355.53;;;10.14;100.00
47104;BME280;32853;52.164;5.400;2023-11-18T13:24:43;101377.97;;;10.21;100.00
47104;BME280;32853;52.164;5.400;2023-11-18T13:27:16;101381.28;;;10.28;100.00